^^
Meteo Knjazevac Station Historical Data
Daily Summary for April 7, 2021 Units:  English    Metric   Both
Daily Weekly Monthly Yearly Custom
  High: Low: Average:
Temperature: 40.8 °F 39.4 °F 40 °F
Dew Point: 40.6 °F 39.1 °F 39.7 °F
Humidity: 99% 98% 99%
Wind Speed: 7mph 0mph 2.8mph
Wind Gust: 14mph - -
Wind- - SSE
Pressure: 30.05 in 29.92 in -
Precipitation: 0.17 in    
Historical Graphs
 
 
Tabular Data for April 7, 2021
Time Temperature Dew Point Pressure Wind Wind Speed Wind Gust Humidity Rainfall Rate (Hourly) solar Conditions
00:00 40.1 °F 39.6 °F 29.95 in NNE 5 mph 8 mph 98% 0.00 in 0 W/m2
00:10 40.1 °F 39.5 °F 29.95 in NNE 3 mph 7 mph 98% 0.00 in 0 W/m2
00:20 39.9 °F 39.7 °F 29.95 in NNE 3 mph 5 mph 99% 0.00 in 0 W/m2
00:30 39.7 °F 39.5 °F 29.95 in NNE 3 mph 8 mph 99% 0.00 in 0 W/m2
00:40 39.6 °F 39.3 °F 29.94 in NNE 3 mph 6 mph 99% 0.00 in 0 W/m2
00:50 39.6 °F 39.3 °F 29.94 in NNE 3 mph 7 mph 99% 0.00 in 0 W/m2
01:00 39.6 °F 39.3 °F 29.94 in NNE 2 mph 7 mph 99% 0.00 in 0 W/m2
01:10 39.6 °F 39.3 °F 29.94 in NNE 2 mph 7 mph 99% 0.00 in 0 W/m2
01:20 39.6 °F 39.3 °F 29.94 in North 1 mph 4 mph 99% 0.00 in 0 W/m2
01:30 39.6 °F 39.3 °F 29.94 in WNW 1 mph 6 mph 99% 0.01 in 0 W/m2
01:40 39.6 °F 39.3 °F 29.94 in North 1 mph 4 mph 99% 0.00 in 0 W/m2
01:50 39.7 °F 39.5 °F 29.94 in NNE 1 mph 5 mph 99% 0.00 in 0 W/m2
02:00 39.7 °F 39.5 °F 29.94 in NNW 2 mph 3 mph 99% 0.00 in 0 W/m2
02:10 39.7 °F 39.5 °F 29.94 in North 1 mph 2 mph 99% 0.00 in 0 W/m2
02:20 39.7 °F 39.5 °F 29.94 in Calm   3 mph 99% 0.00 in 0 W/m2
02:30 39.7 °F 39.5 °F 29.94 in Calm   2 mph 99% 0.00 in 0 W/m2
02:40 39.6 °F 39.3 °F 29.93 in West 1 mph 3 mph 99% 0.00 in 0 W/m2
02:50 39.6 °F 39.3 °F 29.93 in WNW 2 mph 4 mph 99% 0.00 in 0 W/m2
03:00 39.7 °F 39.5 °F 29.92 in NNE 1 mph 4 mph 99% 0.01 in 0 W/m2
03:10 39.7 °F 39.5 °F 29.92 in NNE 2 mph 5 mph 99% 0.00 in 0 W/m2
03:20 39.7 °F 39.5 °F 29.92 in North 2 mph 7 mph 99% 0.00 in 0 W/m2
03:30 39.7 °F 39.5 °F 29.93 in NNE 3 mph 9 mph 99% 0.00 in 0 W/m2
03:40 39.7 °F 39.5 °F 29.94 in Calm   8 mph 99% 0.00 in 0 W/m2
03:50 39.6 °F 39.3 °F 29.94 in NNE 5 mph 9 mph 99% 0.01 in 0 W/m2
04:00 39.6 °F 39.3 °F 29.94 in NNE 7 mph 13 mph 99% 0.01 in 0 W/m2
04:10 39.4 °F 39.1 °F 29.94 in NNE 5 mph 12 mph 99% 0.00 in 0 W/m2
04:20 39.4 °F 39.1 °F 29.95 in NNE 6 mph 14 mph 99% 0.00 in 0 W/m2
04:30 39.6 °F 39.3 °F 29.96 in NNE 6 mph 14 mph 99% 0.01 in 0 W/m2
04:40 39.7 °F 39.5 °F 29.96 in NNE 5 mph 10 mph 99% 0.01 in 0 W/m2
04:50 40.1 °F 39.8 °F 29.97 in NNW 5 mph 13 mph 99% 0.00 in 0 W/m2
05:00 40.6 °F 40.4 °F 29.98 in WNW 5 mph 13 mph 99% 0.00 in 0 W/m2
05:10 40.8 °F 40.6 °F 29.98 in WNW 7 mph 12 mph 99% 0.00 in 0 W/m2
05:20 40.8 °F 40.6 °F 29.98 in WSW 5 mph 12 mph 99% 0.01 in 0 W/m2
05:30 40.8 °F 40.6 °F 29.98 in WSW 5 mph 10 mph 99% 0.00 in 0 W/m2
05:40 40.8 °F 40.6 °F 29.99 in West 1 mph 9 mph 99% 0.00 in 0 W/m2
05:50 40.8 °F 40.6 °F 29.99 in WSW 3 mph 7 mph 99% 0.00 in 0 W/m2
06:00 40.6 °F 40.4 °F 30.00 in WSW 3 mph 7 mph 99% 0.00 in 0 W/m2
06:10 40.6 °F 40.4 °F 30.01 in WSW 2 mph 7 mph 99% 0.01 in 0 W/m2
06:20 40.6 °F 40.4 °F 30.01 in WSW 3 mph 5 mph 99% 0.01 in 0 W/m2
06:30 40.5 °F 40.2 °F 30.01 in West 3 mph 10 mph 99% 0.02 in 0 W/m2
06:40 40.5 °F 40.2 °F 30.01 in West 2 mph 7 mph 99% 0.02 in 0 W/m2
06:50 40.3 °F 40 °F 30.02 in SW 3 mph 6 mph 99% 0.01 in 0 W/m2
07:00 40.3 °F 40 °F 30.01 in Calm   5 mph 99% 0.01 in 0 W/m2
07:10 40.1 °F 39.8 °F 30.02 in SSW 2 mph 5 mph 99% 0.00 in 0 W/m2
07:20 40.1 °F 39.8 °F 30.02 in SE 2 mph 5 mph 99% 0.00 in 2 W/m2
07:30 40.1 °F 39.8 °F 30.02 in East 3 mph 5 mph 99% 0.00 in 4 W/m2
07:40 40.1 °F 39.8 °F 30.03 in Calm   5 mph 99% 0.00 in 3 W/m2
07:50 40.1 °F 39.8 °F 30.03 in SSW 3 mph 5 mph 99% 0.01 in 7 W/m2
08:00 39.9 °F 39.7 °F 30.04 in SSW 2 mph 5 mph 99% 0.00 in 10 W/m2
08:10 39.7 °F 39.5 °F 30.05 in SSW 3 mph 5 mph 99% 0.00 in 13 W/m2
Knjazevac, Serbia
Compliments of Weather Underground - 2 mb